sensor_id;sensor_type;location;lat;lon;timestamp;pressure;altitude;pressure_sealevel;temperature;humidity
59971;BME280;45825;45.434;9.116;2023-03-03T00:02:01;100435.19;;;8.75;90.95
59971;BME280;45825;45.434;9.116;2023-03-03T00:04:26;100434.19;;;8.59;92.06
59971;BME280;45825;45.434;9.116;2023-03-03T00:06:51;100430.16;;;8.71;91.26
59971;BME280;45825;45.434;9.116;2023-03-03T00:09:16;100430.56;;;8.61;91.69
59971;BME280;45825;45.434;9.116;2023-03-03T00:11:42;100421.88;;;8.61;92.09
59971;BME280;45825;45.434;9.116;2023-03-03T00:14:50;100428.09;;;8.58;92.35
59971;BME280;45825;45.434;9.116;2023-03-03T00:17:23;100431.44;;;8.41;93.43
59971;BME280;45825;45.434;9.116;2023-03-03T00:19:49;100436.63;;;8.43;93.76
59971;BME280;45825;45.434;9.116;2023-03-03T00:22:35;100437.75;;;8.37;93.61
59971;BME280;45825;45.434;9.116;2023-03-03T00:27:48;100432.69;;;8.32;95.87
59971;BME280;45825;45.434;9.116;2023-03-03T00:30:22;100425.66;;;8.33;95.71
59971;BME280;45825;45.434;9.116;2023-03-03T00:32:49;100431.97;;;8.29;95.76
59971;BME280;45825;45.434;9.116;2023-03-03T00:35:37;100425.81;;;8.30;95.67
59971;BME280;45825;45.434;9.116;2023-03-03T00:38:13;100427.25;;;8.37;94.56
59971;BME280;45825;45.434;9.116;2023-03-03T00:40:39;100425.53;;;8.36;94.63
59971;BME280;45825;45.434;9.116;2023-03-03T00:43:17;100419.50;;;8.34;94.70
59971;BME280;45825;45.434;9.116;2023-03-03T00:45:45;100422.19;;;8.32;95.15
59971;BME280;45825;45.434;9.116;2023-03-03T00:51:15;100415.63;;;8.43;94.40
59971;BME280;45825;45.434;9.116;2023-03-03T00:53:43;100410.75;;;8.35;94.54
59971;BME280;45825;45.434;9.116;2023-03-03T00:56:08;100411.91;;;8.28;94.36
59971;BME280;45825;45.434;9.116;2023-03-03T00:58:34;100409.34;;;8.26;94.23
59971;BME280;45825;45.434;9.116;2023-03-03T01:00:59;100411.00;;;8.29;93.83
59971;BME280;45825;45.434;9.116;2023-03-03T01:03:26;100412.16;;;8.21;94.40
59971;BME280;45825;45.434;9.116;2023-03-03T01:05:52;100406.09;;;8.21;94.43
59971;BME280;45825;45.434;9.116;2023-03-03T01:08:18;100411.44;;;8.18;93.82
59971;BME280;45825;45.434;9.116;2023-03-03T01:10:47;100408.72;;;8.21;94.30
59971;BME280;45825;45.434;9.116;2023-03-03T01:13:16;100406.53;;;8.31;93.85
59971;BME280;45825;45.434;9.116;2023-03-03T01:15:42;100402.59;;;8.41;93.73
59971;BME280;45825;45.434;9.116;2023-03-03T01:18:09;100401.47;;;8.47;92.57
59971;BME280;45825;45.434;9.116;2023-03-03T01:20:35;100407.78;;;8.43;92.61
59971;BME280;45825;45.434;9.116;2023-03-03T01:23:01;100402.88;;;8.35;92.14
59971;BME280;45825;45.434;9.116;2023-03-03T01:25:26;100390.66;;;8.34;91.78
59971;BME280;45825;45.434;9.116;2023-03-03T01:27:52;100398.13;;;8.43;92.32
59971;BME280;45825;45.434;9.116;2023-03-03T01:30:17;100388.91;;;8.34;91.93
59971;BME280;45825;45.434;9.116;2023-03-03T01:32:43;100387.91;;;8.37;92.69
59971;BME280;45825;45.434;9.116;2023-03-03T01:35:08;100380.88;;;8.37;92.26
59971;BME280;45825;45.434;9.116;2023-03-03T01:37:34;100377.78;;;8.29;92.27
59971;BME280;45825;45.434;9.116;2023-03-03T01:40:00;100383.13;;;8.26;91.92
59971;BME280;45825;45.434;9.116;2023-03-03T01:42:26;100379.66;;;8.25;92.14
59971;BME280;45825;45.434;9.116;2023-03-03T01:47:42;100376.72;;;8.33;92.33
59971;BME280;45825;45.434;9.116;2023-03-03T01:50:11;100370.53;;;8.34;92.00
59971;BME280;45825;45.434;9.116;2023-03-03T01:52:43;100365.75;;;8.23;91.85
59971;BME280;45825;45.434;9.116;2023-03-03T01:55:22;100362.16;;;8.26;91.81
59971;BME280;45825;45.434;9.116;2023-03-03T01:57:58;100362.03;;;8.29;92.18
59971;BME280;45825;45.434;9.116;2023-03-03T02:00:26;100361.81;;;8.34;91.68
59971;BME280;45825;45.434;9.116;2023-03-03T02:02:52;100357.97;;;8.22;92.28
59971;BME280;45825;45.434;9.116;2023-03-03T02:05:19;100359.00;;;8.18;92.27
59971;BME280;45825;45.434;9.116;2023-03-03T02:07:44;100345.13;;;8.16;91.47
59971;BME280;45825;45.434;9.116;2023-03-03T02:10:12;100349.34;;;8.20;91.96
59971;BME280;45825;45.434;9.116;2023-03-03T02:12:48;100349.44;;;8.17;91.82
59971;BME280;45825;45.434;9.116;2023-03-03T02:17:43;100349.41;;;8.18;92.65
59971;BME280;45825;45.434;9.116;2023-03-03T02:20:11;100337.66;;;8.06;92.10
59971;BME280;45825;45.434;9.116;2023-03-03T02:23:00;100344.94;;;8.00;92.12
59971;BME280;45825;45.434;9.116;2023-03-03T02:25:32;100336.50;;;7.93;93.02
59971;BME280;45825;45.434;9.116;2023-03-03T02:28:01;100340.28;;;7.86;93.77
59971;BME280;45825;45.434;9.116;2023-03-03T02:30:26;100328.59;;;7.74;94.74
59971;BME280;45825;45.434;9.116;2023-03-03T02:32:52;100327.13;;;7.66;95.36
59971;BME280;45825;45.434;9.116;2023-03-03T02:35:32;100329.75;;;7.66;96.18
59971;BME280;45825;45.434;9.116;2023-03-03T02:38:11;100324.19;;;7.74;95.26
59971;BME280;45825;45.434;9.116;2023-03-03T02:40:44;100323.53;;;7.69;95.75
59971;BME280;45825;45.434;9.116;2023-03-03T02:43:15;100316.47;;;7.71;95.25
59971;BME280;45825;45.434;9.116;2023-03-03T02:45:43;100315.88;;;7.64;95.62
59971;BME280;45825;45.434;9.116;2023-03-03T02:48:09;100315.00;;;7.64;95.45
59971;BME280;45825;45.434;9.116;2023-03-03T02:50:35;100312.41;;;7.64;95.80
59971;BME280;45825;45.434;9.116;2023-03-03T02:53:00;100307.50;;;7.77;95.38
59971;BME280;45825;45.434;9.116;2023-03-03T02:55:25;100311.03;;;7.76;95.21
59971;BME280;45825;45.434;9.116;2023-03-03T02:57:51;100312.09;;;7.72;95.73
59971;BME280;45825;45.434;9.116;2023-03-03T03:00:16;100315.88;;;7.64;95.64
59971;BME280;45825;45.434;9.116;2023-03-03T03:02:41;100315.25;;;7.59;95.75
59971;BME280;45825;45.434;9.116;2023-03-03T03:05:07;100309.31;;;7.54;96.71
59971;BME280;45825;45.434;9.116;2023-03-03T03:07:33;100307.97;;;7.45;97.24
59971;BME280;45825;45.434;9.116;2023-03-03T03:09:58;100305.00;;;7.53;97.99
59971;BME280;45825;45.434;9.116;2023-03-03T03:12:23;100308.50;;;7.53;97.38
59971;BME280;45825;45.434;9.116;2023-03-03T03:14:49;100303.16;;;7.55;96.86
59971;BME280;45825;45.434;9.116;2023-03-03T03:17:14;100305.38;;;7.44;98.09
59971;BME280;45825;45.434;9.116;2023-03-03T03:19:40;100305.38;;;7.44;98.81
59971;BME280;45825;45.434;9.116;2023-03-03T03:22:05;100303.69;;;7.43;99.13
59971;BME280;45825;45.434;9.116;2023-03-03T03:24:30;100306.50;;;7.38;99.49
59971;BME280;45825;45.434;9.116;2023-03-03T03:26:56;100302.13;;;7.38;100.00
59971;BME280;45825;45.434;9.116;2023-03-03T03:29:21;100294.97;;;7.42;99.45
59971;BME280;45825;45.434;9.116;2023-03-03T03:31:46;100294.56;;;7.31;100.00
59971;BME280;45825;45.434;9.116;2023-03-03T03:34:12;100301.00;;;7.23;100.00
59971;BME280;45825;45.434;9.116;2023-03-03T03:36:37;100307.50;;;7.13;100.00
59971;BME280;45825;45.434;9.116;2023-03-03T03:39:04;100303.88;;;6.95;100.00
59971;BME280;45825;45.434;9.116;2023-03-03T03:41:30;100292.66;;;6.91;100.00
59971;BME280;45825;45.434;9.116;2023-03-03T03:43:56;100296.31;;;6.87;100.00
59971;BME280;45825;45.434;9.116;2023-03-03T03:46:21;100298.75;;;6.92;100.00
59971;BME280;45825;45.434;9.116;2023-03-03T03:48:47;100296.69;;;6.78;100.00
59971;BME280;45825;45.434;9.116;2023-03-03T03:51:12;100299.34;;;6.76;100.00
59971;BME280;45825;45.434;9.116;2023-03-03T03:53:37;100295.16;;;6.72;100.00
59971;BME280;45825;45.434;9.116;2023-03-03T03:56:03;100300.75;;;6.63;100.00
59971;BME280;45825;45.434;9.116;2023-03-03T03:58:28;100296.47;;;6.60;100.00
59971;BME280;45825;45.434;9.116;2023-03-03T04:00:54;100296.97;;;6.70;100.00
59971;BME280;45825;45.434;9.116;2023-03-03T04:03:20;100293.38;;;6.73;100.00
59971;BME280;45825;45.434;9.116;2023-03-03T04:05:45;100294.84;;;6.80;100.00
59971;BME280;45825;45.434;9.116;2023-03-03T04:08:11;100291.38;;;6.79;100.00
59971;BME280;45825;45.434;9.116;2023-03-03T04:10:37;100293.06;;;6.80;100.00
59971;BME280;45825;45.434;9.116;2023-03-03T04:13:03;100294.72;;;6.83;100.00
59971;BME280;45825;45.434;9.116;2023-03-03T04:15:28;100287.38;;;6.70;100.00
59971;BME280;45825;45.434;9.116;2023-03-03T04:17:54;100291.19;;;6.62;100.00
59971;BME280;45825;45.434;9.116;2023-03-03T04:20:19;100293.16;;;6.55;100.00
59971;BME280;45825;45.434;9.116;2023-03-03T04:22:44;100297.09;;;6.67;100.00
59971;BME280;45825;45.434;9.116;2023-03-03T04:25:15;100294.47;;;6.67;100.00
59971;BME280;45825;45.434;9.116;2023-03-03T04:27:40;100291.81;;;6.68;100.00
59971;BME280;45825;45.434;9.116;2023-03-03T04:30:07;100294.91;;;6.56;100.00
59971;BME280;45825;45.434;9.116;2023-03-03T04:32:33;100293.25;;;6.53;100.00
59971;BME280;45825;45.434;9.116;2023-03-03T04:34:59;100294.94;;;6.54;100.00
59971;BME280;45825;45.434;9.116;2023-03-03T04:37:24;100288.63;;;6.60;100.00
59971;BME280;45825;45.434;9.116;2023-03-03T04:39:50;100287.06;;;6.56;100.00
59971;BME280;45825;45.434;9.116;2023-03-03T04:42:15;100289.41;;;6.62;100.00
59971;BME280;45825;45.434;9.116;2023-03-03T04:44:41;100290.91;;;6.69;100.00
59971;BME280;45825;45.434;9.116;2023-03-03T04:47:06;100288.75;;;6.57;100.00
59971;BME280;45825;45.434;9.116;2023-03-03T04:49:31;100288.06;;;6.52;100.00
59971;BME280;45825;45.434;9.116;2023-03-03T04:51:57;100283.13;;;6.44;100.00
59971;BME280;45825;45.434;9.116;2023-03-03T04:54:22;100296.06;;;6.25;100.00
59971;BME280;45825;45.434;9.116;2023-03-03T04:56:48;100291.28;;;6.12;100.00
59971;BME280;45825;45.434;9.116;2023-03-03T04:59:13;100297.75;;;6.00;100.00
59971;BME280;45825;45.434;9.116;2023-03-03T05:01:39;100292.53;;;6.00;100.00
59971;BME280;45825;45.434;9.116;2023-03-03T05:04:05;100293.50;;;5.98;100.00
59971;BME280;45825;45.434;9.116;2023-03-03T05:06:30;100284.56;;;5.80;100.00
59971;BME280;45825;45.434;9.116;2023-03-03T05:08:55;100281.06;;;5.79;100.00
59971;BME280;45825;45.434;9.116;2023-03-03T05:11:22;100283.53;;;5.84;100.00
59971;BME280;45825;45.434;9.116;2023-03-03T05:13:47;100289.06;;;6.00;100.00
59971;BME280;45825;45.434;9.116;2023-03-03T05:16:13;100286.84;;;5.89;100.00
59971;BME280;45825;45.434;9.116;2023-03-03T05:18:38;100293.41;;;5.76;100.00
59971;BME280;45825;45.434;9.116;2023-03-03T05:21:03;100284.59;;;5.78;100.00
59971;BME280;45825;45.434;9.116;2023-03-03T05:23:29;100281.63;;;5.64;100.00
59971;BME280;45825;45.434;9.116;2023-03-03T05:25:55;100278.84;;;5.68;100.00
59971;BME280;45825;45.434;9.116;2023-03-03T05:28:20;100276.34;;;5.65;100.00
59971;BME280;45825;45.434;9.116;2023-03-03T05:30:46;100278.25;;;5.60;100.00
59971;BME280;45825;45.434;9.116;2023-03-03T05:33:13;100280.34;;;5.50;100.00
59971;BME280;45825;45.434;9.116;2023-03-03T05:35:39;100286.34;;;5.52;100.00
59971;BME280;45825;45.434;9.116;2023-03-03T05:38:04;100279.13;;;5.61;100.00
59971;BME280;45825;45.434;9.116;2023-03-03T05:40:30;100281.41;;;5.44;100.00
59971;BME280;45825;45.434;9.116;2023-03-03T05:42:55;100278.00;;;5.42;100.00
59971;BME280;45825;45.434;9.116;2023-03-03T05:45:20;100278.09;;;5.39;100.00
59971;BME280;45825;45.434;9.116;2023-03-03T05:47:49;100288.75;;;5.33;100.00
59971;BME280;45825;45.434;9.116;2023-03-03T05:50:14;100288.03;;;5.28;100.00
59971;BME280;45825;45.434;9.116;2023-03-03T05:52:40;100281.41;;;5.17;100.00
59971;BME280;45825;45.434;9.116;2023-03-03T05:55:06;100282.53;;;5.10;100.00
59971;BME280;45825;45.434;9.116;2023-03-03T05:57:31;100290.78;;;5.23;100.00
59971;BME280;45825;45.434;9.116;2023-03-03T05:59:57;100292.34;;;5.29;100.00
59971;BME280;45825;45.434;9.116;2023-03-03T06:02:22;100291.41;;;5.31;100.00
59971;BME280;45825;45.434;9.116;2023-03-03T06:04:47;100300.78;;;5.37;100.00
59971;BME280;45825;45.434;9.116;2023-03-03T06:07:13;100291.69;;;5.49;100.00
59971;BME280;45825;45.434;9.116;2023-03-03T06:09:38;100297.59;;;5.54;100.00
59971;BME280;45825;45.434;9.116;2023-03-03T06:12:04;100285.81;;;5.68;100.00
59971;BME280;45825;45.434;9.116;2023-03-03T06:14:30;100298.47;;;5.80;100.00
59971;BME280;45825;45.434;9.116;2023-03-03T06:16:55;100304.00;;;5.96;100.00
59971;BME280;45825;45.434;9.116;2023-03-03T06:19:22;100295.25;;;5.97;100.00
59971;BME280;45825;45.434;9.116;2023-03-03T06:21:48;100295.47;;;5.91;100.00
59971;BME280;45825;45.434;9.116;2023-03-03T06:24:14;100299.00;;;5.90;100.00
59971;BME280;45825;45.434;9.116;2023-03-03T06:26:40;100297.56;;;5.81;100.00
59971;BME280;45825;45.434;9.116;2023-03-03T06:29:05;100298.25;;;5.86;100.00
59971;BME280;45825;45.434;9.116;2023-03-03T06:31:31;100300.22;;;5.80;100.00
59971;BME280;45825;45.434;9.116;2023-03-03T06:33:56;100298.88;;;5.68;100.00
59971;BME280;45825;45.434;9.116;2023-03-03T06:36:21;100296.69;;;5.55;100.00
59971;BME280;45825;45.434;9.116;2023-03-03T06:38:47;100308.44;;;5.42;100.00
59971;BME280;45825;45.434;9.116;2023-03-03T06:41:13;100308.09;;;5.53;100.00
59971;BME280;45825;45.434;9.116;2023-03-03T06:43:38;100305.00;;;5.67;100.00
59971;BME280;45825;45.434;9.116;2023-03-03T06:46:04;100313.44;;;5.75;100.00
59971;BME280;45825;45.434;9.116;2023-03-03T06:48:31;100319.09;;;5.88;100.00
59971;BME280;45825;45.434;9.116;2023-03-03T06:51:01;100321.06;;;5.81;100.00
59971;BME280;45825;45.434;9.116;2023-03-03T06:53:27;100325.25;;;5.60;100.00
59971;BME280;45825;45.434;9.116;2023-03-03T06:55:56;100318.97;;;5.66;100.00
59971;BME280;45825;45.434;9.116;2023-03-03T06:58:22;100334.63;;;5.66;100.00
59971;BME280;45825;45.434;9.116;2023-03-03T07:00:56;100331.59;;;5.78;100.00
59971;BME280;45825;45.434;9.116;2023-03-03T07:03:27;100339.66;;;5.72;100.00
59971;BME280;45825;45.434;9.116;2023-03-03T07:05:56;100328.91;;;5.81;100.00
59971;BME280;45825;45.434;9.116;2023-03-03T07:08:23;100329.38;;;5.93;100.00
59971;BME280;45825;45.434;9.116;2023-03-03T07:10:50;100326.13;;;6.11;100.00
59971;BME280;45825;45.434;9.116;2023-03-03T07:15:42;100327.88;;;6.36;100.00
59971;BME280;45825;45.434;9.116;2023-03-03T07:18:39;100327.97;;;6.33;100.00
59971;BME280;45825;45.434;9.116;2023-03-03T07:23:38;100319.28;;;6.56;100.00
59971;BME280;45825;45.434;9.116;2023-03-03T07:26:15;100320.06;;;6.59;100.00
59971;BME280;45825;45.434;9.116;2023-03-03T07:28:55;100323.56;;;6.81;100.00
59971;BME280;45825;45.434;9.116;2023-03-03T07:31:41;100321.50;;;6.90;100.00
59971;BME280;45825;45.434;9.116;2023-03-03T07:36:51;100322.91;;;7.21;100.00
59971;BME280;45825;45.434;9.116;2023-03-03T07:39:30;100326.25;;;7.24;100.00
59971;BME280;45825;45.434;9.116;2023-03-03T07:44:36;100328.00;;;7.24;100.00
59971;BME280;45825;45.434;9.116;2023-03-03T07:47:18;100328.13;;;7.21;100.00
59971;BME280;45825;45.434;9.116;2023-03-03T07:49:45;100332.81;;;7.12;100.00
59971;BME280;45825;45.434;9.116;2023-03-03T07:52:24;100335.50;;;7.11;100.00
59971;BME280;45825;45.434;9.116;2023-03-03T07:54:51;100337.56;;;7.03;100.00
59971;BME280;45825;45.434;9.116;2023-03-03T07:57:21;100345.34;;;7.26;100.00
59971;BME280;45825;45.434;9.116;2023-03-03T08:02:55;100342.03;;;7.66;100.00
59971;BME280;45825;45.434;9.116;2023-03-03T08:05:35;100343.72;;;7.67;100.00
59971;BME280;45825;45.434;9.116;2023-03-03T08:10:53;100346.72;;;7.58;100.00
59971;BME280;45825;45.434;9.116;2023-03-03T08:13:28;100351.19;;;7.55;100.00
59971;BME280;45825;45.434;9.116;2023-03-03T08:16:01;100348.06;;;7.46;100.00
59971;BME280;45825;45.434;9.116;2023-03-03T08:18:41;100356.59;;;7.51;100.00
59971;BME280;45825;45.434;9.116;2023-03-03T08:21:24;100353.59;;;7.60;100.00
59971;BME280;45825;45.434;9.116;2023-03-03T08:23:50;100346.00;;;7.54;100.00
59971;BME280;45825;45.434;9.116;2023-03-03T08:26:19;100350.72;;;7.66;100.00
59971;BME280;45825;45.434;9.116;2023-03-03T08:28:45;100348.50;;;7.78;99.81
59971;BME280;45825;45.434;9.116;2023-03-03T08:31:10;100346.34;;;7.88;99.43
59971;BME280;45825;45.434;9.116;2023-03-03T08:33:36;100347.25;;;7.87;98.10
59971;BME280;45825;45.434;9.116;2023-03-03T08:36:02;100345.16;;;7.95;97.34
59971;BME280;45825;45.434;9.116;2023-03-03T08:38:28;100349.47;;;7.96;97.40
59971;BME280;45825;45.434;9.116;2023-03-03T08:40:53;100350.78;;;8.06;96.75
59971;BME280;45825;45.434;9.116;2023-03-03T08:43:18;100351.66;;;8.26;95.33
59971;BME280;45825;45.434;9.116;2023-03-03T08:45:48;100344.16;;;8.37;93.68
59971;BME280;45825;45.434;9.116;2023-03-03T08:48:15;100348.16;;;8.46;93.47
59971;BME280;45825;45.434;9.116;2023-03-03T08:50:41;100342.94;;;8.46;93.09
59971;BME280;45825;45.434;9.116;2023-03-03T08:53:07;100348.56;;;8.58;92.40
59971;BME280;45825;45.434;9.116;2023-03-03T08:55:32;100344.72;;;8.65;92.20
59971;BME280;45825;45.434;9.116;2023-03-03T08:57:58;100346.91;;;8.74;91.84
59971;BME280;45825;45.434;9.116;2023-03-03T09:00:24;100352.50;;;8.86;91.40
59971;BME280;45825;45.434;9.116;2023-03-03T09:02:51;100354.09;;;8.90;91.22
59971;BME280;45825;45.434;9.116;2023-03-03T09:05:17;100352.16;;;8.93;90.70
59971;BME280;45825;45.434;9.116;2023-03-03T09:07:44;100356.00;;;8.86;90.17
59971;BME280;45825;45.434;9.116;2023-03-03T09:10:11;100355.34;;;8.81;90.00
59971;BME280;45825;45.434;9.116;2023-03-03T09:12:40;100351.97;;;8.79;89.65
59971;BME280;45825;45.434;9.116;2023-03-03T09:15:17;100354.31;;;8.85;90.38
59971;BME280;45825;45.434;9.116;2023-03-03T09:17:43;100348.84;;;8.90;88.70
59971;BME280;45825;45.434;9.116;2023-03-03T09:22:49;100355.31;;;9.19;87.68
59971;BME280;45825;45.434;9.116;2023-03-03T09:25:30;100356.03;;;9.23;86.57
59971;BME280;45825;45.434;9.116;2023-03-03T09:27:56;100356.88;;;9.23;85.41
59971;BME280;45825;45.434;9.116;2023-03-03T09:32:47;100356.91;;;9.41;83.43
59971;BME280;45825;45.434;9.116;2023-03-03T09:37:53;100360.75;;;9.69;82.57
59971;BME280;45825;45.434;9.116;2023-03-03T09:41:29;100363.63;;;9.82;80.73
59971;BME280;45825;45.434;9.116;2023-03-03T09:43:34;100366.59;;;9.76;79.49
59971;BME280;45825;45.434;9.116;2023-03-03T09:48:57;100374.44;;;9.93;77.51
59971;BME280;45825;45.434;9.116;2023-03-03T10:00:06;100367.41;;;10.63;77.31
59971;BME280;45825;45.434;9.116;2023-03-03T10:02:52;100362.53;;;10.55;77.36
59971;BME280;45825;45.434;9.116;2023-03-03T10:08:35;100370.13;;;10.78;75.16
59971;BME280;45825;45.434;9.116;2023-03-03T10:14:04;100363.22;;;11.23;73.56
59971;BME280;45825;45.434;9.116;2023-03-03T10:16:56;100362.97;;;11.58;71.64
59971;BME280;45825;45.434;9.116;2023-03-03T10:19:39;100362.03;;;11.90;70.69
59971;BME280;45825;45.434;9.116;2023-03-03T10:22:29;100365.38;;;12.23;69.21
59971;BME280;45825;45.434;9.116;2023-03-03T10:25:06;100362.38;;;12.58;67.85
59971;BME280;45825;45.434;9.116;2023-03-03T10:28:06;100365.63;;;13.18;64.70
59971;BME280;45825;45.434;9.116;2023-03-03T10:39:31;100360.88;;;14.56;57.92
59971;BME280;45825;45.434;9.116;2023-03-03T10:42:08;100355.56;;;15.06;56.06
59971;BME280;45825;45.434;9.116;2023-03-03T10:55:56;100345.56;;;17.72;47.01
59971;BME280;45825;45.434;9.116;2023-03-03T11:18:35;100316.06;;;22.76;35.35
59971;BME280;45825;45.434;9.116;2023-03-03T11:29:31;100311.91;;;23.98;32.18
59971;BME280;45825;45.434;9.116;2023-03-03T11:32:48;100301.06;;;24.63;31.33
59971;BME280;45825;45.434;9.116;2023-03-03T11:37:41;100293.06;;;25.09;29.70
59971;BME280;45825;45.434;9.116;2023-03-03T11:40:17;100297.94;;;24.11;30.25
59971;BME280;45825;45.434;9.116;2023-03-03T11:42:51;100294.00;;;25.17;29.22
59971;BME280;45825;45.434;9.116;2023-03-03T11:45:24;100299.09;;;25.88;28.51
59971;BME280;45825;45.434;9.116;2023-03-03T11:47:58;100299.38;;;25.63;28.30
59971;BME280;45825;45.434;9.116;2023-03-03T11:55:37;100279.94;;;25.98;27.09
59971;BME280;45825;45.434;9.116;2023-03-03T11:58:17;100275.41;;;26.29;26.38
59971;BME280;45825;45.434;9.116;2023-03-03T12:03:32;100278.31;;;27.29;25.34
59971;BME280;45825;45.434;9.116;2023-03-03T12:07:01;100269.88;;;28.65;24.62
59971;BME280;45825;45.434;9.116;2023-03-03T12:12:34;100265.19;;;29.01;23.83
59971;BME280;45825;45.434;9.116;2023-03-03T12:15:21;100267.50;;;26.64;25.49
59971;BME280;45825;45.434;9.116;2023-03-03T12:26:08;100252.44;;;28.81;23.71
59971;BME280;45825;45.434;9.116;2023-03-03T12:28:57;100249.34;;;29.18;22.64
59971;BME280;45825;45.434;9.116;2023-03-03T12:31:59;100247.69;;;30.30;21.90
59971;BME280;45825;45.434;9.116;2023-03-03T12:34:38;100247.06;;;29.28;22.77
59971;BME280;45825;45.434;9.116;2023-03-03T12:37:22;100243.47;;;29.82;21.77
59971;BME280;45825;45.434;9.116;2023-03-03T12:40:07;100240.41;;;28.91;22.77
59971;BME280;45825;45.434;9.116;2023-03-03T12:48:57;100223.06;;;30.64;21.51
59971;BME280;45825;45.434;9.116;2023-03-03T12:56:26;100232.41;;;29.77;22.18
59971;BME280;45825;45.434;9.116;2023-03-03T12:59:08;100227.28;;;28.88;22.23
59971;BME280;45825;45.434;9.116;2023-03-03T13:04:32;100223.25;;;28.43;22.63
59971;BME280;45825;45.434;9.116;2023-03-03T13:12:29;100221.44;;;30.56;20.02
59971;BME280;45825;45.434;9.116;2023-03-03T13:17:50;100214.88;;;29.86;20.85
59971;BME280;45825;45.434;9.116;2023-03-03T13:23:42;100228.78;;;30.03;21.03
59971;BME280;45825;45.434;9.116;2023-03-03T13:26:17;100210.25;;;31.03;20.00
59971;BME280;45825;45.434;9.116;2023-03-03T13:31:46;100212.34;;;29.84;21.11
59971;BME280;45825;45.434;9.116;2023-03-03T13:34:22;100210.59;;;29.51;21.43
59971;BME280;45825;45.434;9.116;2023-03-03T13:36:56;100207.97;;;30.75;20.45
59971;BME280;45825;45.434;9.116;2023-03-03T13:39:26;100209.72;;;30.56;20.60
59971;BME280;45825;45.434;9.116;2023-03-03T13:42:22;100217.50;;;29.27;20.90
59971;BME280;45825;45.434;9.116;2023-03-03T13:44:49;100210.13;;;29.68;20.78
59971;BME280;45825;45.434;9.116;2023-03-03T13:58:51;100196.84;;;27.96;22.69
59971;BME280;45825;45.434;9.116;2023-03-03T14:06:58;100189.28;;;27.43;23.69
59971;BME280;45825;45.434;9.116;2023-03-03T14:09:45;100187.53;;;28.12;23.88
59971;BME280;45825;45.434;9.116;2023-03-03T14:12:40;100184.25;;;27.68;23.78
59971;BME280;45825;45.434;9.116;2023-03-03T14:15:24;100196.47;;;28.89;22.55
59971;BME280;45825;45.434;9.116;2023-03-03T14:18:16;100184.50;;;28.36;22.54
59971;BME280;45825;45.434;9.116;2023-03-03T14:20:53;100190.16;;;27.15;23.34
59971;BME280;45825;45.434;9.116;2023-03-03T14:23:49;100188.13;;;28.01;23.24
59971;BME280;45825;45.434;9.116;2023-03-03T14:26:16;100183.97;;;26.77;24.07
59971;BME280;45825;45.434;9.116;2023-03-03T14:28:44;100195.34;;;24.62;25.64
59971;BME280;45825;45.434;9.116;2023-03-03T14:31:25;100197.75;;;22.03;29.46
59971;BME280;45825;45.434;9.116;2023-03-03T14:33:56;100200.88;;;21.63;30.54
59971;BME280;45825;45.434;9.116;2023-03-03T14:36:42;100195.22;;;23.36;28.56
59971;BME280;45825;45.434;9.116;2023-03-03T14:39:31;100193.69;;;23.41;28.00
59971;BME280;45825;45.434;9.116;2023-03-03T14:41:56;100190.38;;;23.88;27.66
59971;BME280;45825;45.434;9.116;2023-03-03T14:44:27;100182.75;;;23.60;27.87
59971;BME280;45825;45.434;9.116;2023-03-03T14:49:39;100178.13;;;25.33;25.83
59971;BME280;45825;45.434;9.116;2023-03-03T14:54:41;100182.63;;;24.56;27.18
59971;BME280;45825;45.434;9.116;2023-03-03T15:02:46;100178.59;;;23.49;28.46
59971;BME280;45825;45.434;9.116;2023-03-03T15:05:32;100190.66;;;20.70;31.88
59971;BME280;45825;45.434;9.116;2023-03-03T15:08:08;100176.34;;;21.68;31.24
59971;BME280;45825;45.434;9.116;2023-03-03T15:10:38;100181.25;;;21.55;30.80
59971;BME280;45825;45.434;9.116;2023-03-03T15:18:33;100183.88;;;17.55;37.83
59971;BME280;45825;45.434;9.116;2023-03-03T15:21:12;100186.13;;;17.50;38.03
59971;BME280;45825;45.434;9.116;2023-03-03T15:24:02;100189.75;;;17.27;38.72
59971;BME280;45825;45.434;9.116;2023-03-03T15:29:16;100184.09;;;16.67;40.10
59971;BME280;45825;45.434;9.116;2023-03-03T15:40:04;100190.81;;;16.50;40.52
59971;BME280;45825;45.434;9.116;2023-03-03T15:43:27;100193.31;;;15.73;41.90
59971;BME280;45825;45.434;9.116;2023-03-03T15:46:14;100195.59;;;15.55;42.44
59971;BME280;45825;45.434;9.116;2023-03-03T15:57:10;100198.22;;;15.32;43.60
59971;BME280;45825;45.434;9.116;2023-03-03T16:00:02;100186.03;;;15.41;44.07
59971;BME280;45825;45.434;9.116;2023-03-03T16:02:45;100193.38;;;15.26;44.70
59971;BME280;45825;45.434;9.116;2023-03-03T16:05:21;100184.25;;;14.94;44.77
59971;BME280;45825;45.434;9.116;2023-03-03T16:07:59;100188.88;;;15.03;45.07
59971;BME280;45825;45.434;9.116;2023-03-03T16:13:44;100199.56;;;15.02;45.20
59971;BME280;45825;45.434;9.116;2023-03-03T16:16:38;100199.50;;;15.15;45.00
59971;BME280;45825;45.434;9.116;2023-03-03T16:19:33;100200.31;;;15.15;44.99
59971;BME280;45825;45.434;9.116;2023-03-03T16:30:52;100200.63;;;14.99;45.43
59971;BME280;45825;45.434;9.116;2023-03-03T16:38:56;100208.63;;;14.75;45.64
59971;BME280;45825;45.434;9.116;2023-03-03T16:41:46;100211.59;;;14.70;45.85
59971;BME280;45825;45.434;9.116;2023-03-03T16:44:37;100216.03;;;14.70;46.19
59971;BME280;45825;45.434;9.116;2023-03-03T16:48:09;100224.84;;;14.70;46.62
59971;BME280;45825;45.434;9.116;2023-03-03T16:55:35;100231.22;;;14.55;46.05
59971;BME280;45825;45.434;9.116;2023-03-03T17:06:09;100245.06;;;14.34;48.50
59971;BME280;45825;45.434;9.116;2023-03-03T17:09:10;100238.53;;;14.27;49.59
59971;BME280;45825;45.434;9.116;2023-03-03T17:16:59;100250.41;;;14.08;48.91